createdAt,value
2022-12-05T00:01:15.386Z,34.35
2022-12-05T00:06:09.864Z,33.25
2022-12-05T00:08:37.215Z,32.92
2022-12-05T00:11:04.845Z,29.42
2022-12-05T00:13:32.090Z,30.92
2022-12-05T00:15:59.287Z,34.83
2022-12-05T00:18:26.848Z,31.80
2022-12-05T00:20:54.376Z,31.58
2022-12-05T00:23:21.780Z,29.00
2022-12-05T00:25:48.999Z,31.27
2022-12-05T00:28:16.260Z,35.53
2022-12-05T00:30:43.573Z,31.17
2022-12-05T00:33:10.805Z,34.40
2022-12-05T00:35:38.036Z,34.17
2022-12-05T00:38:05.223Z,33.47
2022-12-05T00:40:32.461Z,31.63
2022-12-05T00:42:59.694Z,36.38
2022-12-05T00:45:26.914Z,32.92
2022-12-05T00:47:54.221Z,32.25
2022-12-05T00:50:21.510Z,30.05
2022-12-05T00:52:48.765Z,34.58
2022-12-05T00:55:16.042Z,30.70
2022-12-05T00:57:43.244Z,33.35
2022-12-05T01:00:10.749Z,30.00
2022-12-05T01:02:38.081Z,30.05
2022-12-05T01:05:06.534Z,30.75
2022-12-05T01:07:33.826Z,30.25
2022-12-05T01:10:01.057Z,32.63
2022-12-05T01:12:28.825Z,33.38
2022-12-05T01:14:56.077Z,31.10
2022-12-05T01:17:23.344Z,33.40
2022-12-05T01:19:50.589Z,30.65
2022-12-05T01:22:17.890Z,35.03
2022-12-05T01:24:45.174Z,30.30
2022-12-05T01:27:12.604Z,29.90
2022-12-05T01:29:39.938Z,29.88
2022-12-05T01:32:07.307Z,30.38
2022-12-05T01:34:34.646Z,31.42
2022-12-05T01:37:02.624Z,29.98
2022-12-05T01:39:29.972Z,31.48
2022-12-05T01:41:57.548Z,35.15
2022-12-05T01:44:24.868Z,35.35
2022-12-05T01:46:53.208Z,32.35
2022-12-05T01:49:20.552Z,33.53
2022-12-05T01:51:49.447Z,31.02
2022-12-05T01:54:19.068Z,30.25
2022-12-05T01:59:14.006Z,31.92
2022-12-05T02:01:41.874Z,33.30
2022-12-05T02:04:09.385Z,31.40
2022-12-05T02:06:36.629Z,31.38
2022-12-05T02:09:04.347Z,28.55
2022-12-05T02:11:33.419Z,29.02
2022-12-05T02:14:12.641Z,33.28
2022-12-05T02:17:15.363Z,31.38
2022-12-05T02:19:42.655Z,28.27
2022-12-05T02:22:16.055Z,30.27
2022-12-05T02:24:46.477Z,29.85
2022-12-05T02:27:19.923Z,26.75
2022-12-05T02:29:56.770Z,29.55
2022-12-05T02:32:39.030Z,29.05
2022-12-05T02:35:14.679Z,35.60
2022-12-05T02:37:51.164Z,31.15
2022-12-05T02:40:41.735Z,32.13
2022-12-05T02:43:13.090Z,29.35
2022-12-05T02:45:40.667Z,28.88
2022-12-05T02:48:08.200Z,30.23
2022-12-05T02:50:38.447Z,31.10
2022-12-05T02:53:08.139Z,34.53
2022-12-05T02:55:35.741Z,32.05
2022-12-05T02:58:06.248Z,33.13
2022-12-05T03:00:35.170Z,30.10
2022-12-05T03:03:02.531Z,28.52
2022-12-05T03:05:39.010Z,31.45
2022-12-05T03:08:09.187Z,29.10
2022-12-05T03:10:38.345Z,32.45
2022-12-05T03:13:07.867Z,28.38
2022-12-05T03:15:37.830Z,28.08
2022-12-05T03:18:09.812Z,26.73
2022-12-05T03:20:39.370Z,29.52
2022-12-05T03:25:36.728Z,28.95
2022-12-05T03:28:08.407Z,28.13
2022-12-05T03:30:38.813Z,26.27
2022-12-05T03:33:14.759Z,27.55
2022-12-05T03:35:54.893Z,28.88
2022-12-05T03:38:26.528Z,27.95
2022-12-05T03:41:23.335Z,28.38
2022-12-05T03:43:59.277Z,26.77
2022-12-05T03:46:26.612Z,24.58
2022-12-05T03:48:55.077Z,27.63
2022-12-05T03:51:24.202Z,29.30
2022-12-05T03:54:03.442Z,25.33
2022-12-05T03:56:32.817Z,26.27
2022-12-05T03:59:05.941Z,22.95
2022-12-05T04:01:34.544Z,26.52
2022-12-05T04:04:05.820Z,26.13
2022-12-05T04:06:35.069Z,27.95
2022-12-05T04:09:09.173Z,29.60
2022-12-05T04:11:44.030Z,26.80
2022-12-05T04:14:26.211Z,26.15
2022-12-05T04:17:05.049Z,28.83
2022-12-05T04:20:09.227Z,27.10
2022-12-05T04:22:37.333Z,26.42
2022-12-05T04:25:24.568Z,30.35
2022-12-05T04:27:51.863Z,24.70
2022-12-05T04:30:21.503Z,21.88
2022-12-05T04:33:00.802Z,27.25
2022-12-05T04:35:33.437Z,25.90
2022-12-05T04:38:19.994Z,28.25
2022-12-05T04:40:52.606Z,24.70
2022-12-05T04:43:21.042Z,27.70
2022-12-05T04:45:49.358Z,26.08
2022-12-05T04:48:18.006Z,22.52
2022-12-05T04:50:46.593Z,25.60
2022-12-05T04:53:14.831Z,28.90
2022-12-05T04:55:44.896Z,27.17
2022-12-05T04:58:15.298Z,24.08
2022-12-05T05:00:57.214Z,24.80
2022-12-05T05:03:47.787Z,26.73
2022-12-05T05:06:15.573Z,26.80
2022-12-05T05:08:50.558Z,26.35
2022-12-05T05:11:22.462Z,26.27
2022-12-05T05:13:49.845Z,26.60
2022-12-05T05:16:21.788Z,27.88
2022-12-05T05:18:49.922Z,25.40
2022-12-05T05:21:49.464Z,30.15
2022-12-05T05:24:16.752Z,26.55
2022-12-05T05:26:44.721Z,28.63
2022-12-05T05:29:12.539Z,27.10
2022-12-05T05:31:40.126Z,33.15
2022-12-05T05:34:09.677Z,31.00
2022-12-05T05:36:37.678Z,26.67
2022-12-05T05:39:05.478Z,30.65
2022-12-05T05:41:36.608Z,28.48
2022-12-05T05:44:05.008Z,31.58
2022-12-05T05:46:33.263Z,32.45
2022-12-05T05:49:00.736Z,27.85
2022-12-05T05:51:29.432Z,27.73
2022-12-05T05:53:57.231Z,28.42
2022-12-05T05:56:24.539Z,30.58
2022-12-05T05:59:02.344Z,31.13
2022-12-05T06:01:30.301Z,28.23
2022-12-05T06:03:57.871Z,29.40
2022-12-05T06:06:25.683Z,29.05
2022-12-05T06:08:52.960Z,27.98
2022-12-05T06:11:25.793Z,29.73
2022-12-05T06:13:54.987Z,28.52
2022-12-05T06:16:22.384Z,29.10
2022-12-05T06:18:50.202Z,28.60
2022-12-05T06:21:17.720Z,27.92
2022-12-05T06:23:45.310Z,29.70
2022-12-05T06:26:14.165Z,27.38
2022-12-05T06:28:41.647Z,28.17
2022-12-05T06:31:13.127Z,28.25
2022-12-05T06:33:40.443Z,30.83
2022-12-05T06:36:11.810Z,26.00
2022-12-05T06:38:42.312Z,30.80
2022-12-05T06:41:12.095Z,37.15
2022-12-05T06:43:39.305Z,28.27
2022-12-05T06:46:07.617Z,31.48
2022-12-05T06:48:35.039Z,29.60
2022-12-05T06:51:02.553Z,34.13
2022-12-05T06:53:30.091Z,28.63
2022-12-05T06:55:58.427Z,29.15
2022-12-05T06:58:25.770Z,27.45
2022-12-05T07:01:12.289Z,27.00
2022-12-05T07:03:39.928Z,29.92
2022-12-05T07:06:08.151Z,30.20
2022-12-05T07:08:35.828Z,30.45
2022-12-05T07:11:03.497Z,28.08
2022-12-05T07:13:30.965Z,31.42
2022-12-05T07:15:59.066Z,26.77
2022-12-05T07:18:27.237Z,28.17
2022-12-05T07:21:17.326Z,27.30
2022-12-05T07:23:45.661Z,28.23
2022-12-05T07:26:14.971Z,30.55
2022-12-05T07:28:42.195Z,28.42
2022-12-05T07:31:10.500Z,30.08
2022-12-05T07:33:38.368Z,26.48
2022-12-05T07:36:13.142Z,28.08
2022-12-05T07:38:40.889Z,28.55
2022-12-05T07:41:28.130Z,25.83
2022-12-05T07:43:56.228Z,26.45
2022-12-05T07:46:24.002Z,24.10
2022-12-05T07:48:51.739Z,23.88
2022-12-05T07:51:19.751Z,23.30
2022-12-05T07:53:47.017Z,23.48
2022-12-05T07:56:17.071Z,23.60
2022-12-05T07:58:49.318Z,22.00
2022-12-05T08:01:18.079Z,23.48
2022-12-05T08:03:45.960Z,18.55
2022-12-05T08:06:17.701Z,21.63
2022-12-05T08:08:45.219Z,22.48
2022-12-05T08:11:13.637Z,20.33
2022-12-05T08:13:41.026Z,22.88
2022-12-05T08:16:10.486Z,21.73
2022-12-05T08:18:38.375Z,20.73
2022-12-05T08:21:06.574Z,21.73
2022-12-05T08:23:34.227Z,22.50
2022-12-05T08:26:02.753Z,21.63
2022-12-05T08:28:30.226Z,20.05
2022-12-05T08:30:57.695Z,21.13
2022-12-05T08:33:25.009Z,22.35
2022-12-05T08:35:52.216Z,19.35
2022-12-05T08:38:19.484Z,19.63
2022-12-05T08:40:47.606Z,20.67
2022-12-05T08:43:14.913Z,21.33
2022-12-05T08:45:42.189Z,20.67
2022-12-05T08:48:09.451Z,18.75
2022-12-05T08:50:39.587Z,18.98
2022-12-05T08:53:06.873Z,21.63
2022-12-05T08:55:37.637Z,22.33
2022-12-05T08:58:04.882Z,17.67
2022-12-05T09:00:32.260Z,21.63
2022-12-05T09:02:59.744Z,16.90
2022-12-05T09:05:29.121Z,19.30
2022-12-05T09:07:57.180Z,16.85
2022-12-05T09:10:24.609Z,16.40
2022-12-05T09:12:51.961Z,17.95
2022-12-05T09:15:19.315Z,15.80
2022-12-05T09:17:46.599Z,13.88
2022-12-05T09:20:14.303Z,16.17
2022-12-05T09:22:41.797Z,14.90
2022-12-05T09:25:09.447Z,14.25
2022-12-05T09:27:37.135Z,13.73
2022-12-05T09:30:05.446Z,15.30
2022-12-05T09:32:32.783Z,15.05
2022-12-05T09:35:00.408Z,15.27
2022-12-05T09:37:39.245Z,13.70
2022-12-05T09:40:07.578Z,13.10
2022-12-05T09:42:39.027Z,13.45
2022-12-05T09:45:15.844Z,13.40
2022-12-05T09:47:46.129Z,13.32
2022-12-05T09:50:16.067Z,14.70
2022-12-05T09:52:58.609Z,14.20
2022-12-05T09:57:54.949Z,13.43
2022-12-05T10:00:22.210Z,11.75
2022-12-05T10:03:01.511Z,14.93
2022-12-05T10:05:33.029Z,13.25
2022-12-05T10:08:07.849Z,13.27
2022-12-05T10:10:44.403Z,12.27
2022-12-05T10:13:30.605Z,13.13
2022-12-05T10:16:03.970Z,12.75
2022-12-05T10:18:40.407Z,12.68
2022-12-05T10:21:16.847Z,13.27
2022-12-05T10:23:57.685Z,12.18
2022-12-05T10:26:30.319Z,13.10
2022-12-05T10:29:16.366Z,12.13
2022-12-05T10:31:45.673Z,12.27
2022-12-05T10:34:19.325Z,12.73
2022-12-05T10:37:06.834Z,11.55
2022-12-05T10:39:34.183Z,10.95
2022-12-05T10:42:01.404Z,10.93
2022-12-05T10:44:28.708Z,10.68
2022-12-05T10:46:56.569Z,8.90
2022-12-05T10:49:24.248Z,9.65
2022-12-05T10:51:51.687Z,10.07
2022-12-05T10:54:21.103Z,9.27
2022-12-05T10:56:49.394Z,9.52
2022-12-05T10:59:20.546Z,9.73
2022-12-05T11:01:49.945Z,10.77
2022-12-05T11:04:25.764Z,8.00
2022-12-05T11:06:54.874Z,9.05
2022-12-05T11:09:23.689Z,8.63
2022-12-05T11:12:09.783Z,9.05
2022-12-05T11:14:37.090Z,8.55
2022-12-05T11:17:05.470Z,8.98
2022-12-05T11:19:33.814Z,8.20
2022-12-05T11:22:01.201Z,8.05
2022-12-05T11:24:33.131Z,9.23
2022-12-05T11:27:01.786Z,7.93
2022-12-05T11:29:37.125Z,7.82
2022-12-05T11:32:05.900Z,8.55
2022-12-05T11:34:36.529Z,10.32
2022-12-05T11:37:07.272Z,7.30
2022-12-05T11:39:35.246Z,10.07
2022-12-05T11:42:20.966Z,8.75
2022-12-05T11:44:54.174Z,8.27
2022-12-05T11:47:44.527Z,9.00
2022-12-05T11:50:17.831Z,9.35
2022-12-05T11:52:47.234Z,8.98
2022-12-05T11:55:21.172Z,9.98
2022-12-05T11:58:07.618Z,9.38
2022-12-05T12:00:40.798Z,9.00
2022-12-05T12:03:10.959Z,9.88
2022-12-05T12:05:53.638Z,10.05
2022-12-05T12:08:30.550Z,10.45
2022-12-05T12:11:12.983Z,10.23
2022-12-05T12:13:40.233Z,9.20
2022-12-05T12:16:14.172Z,9.15
2022-12-05T12:18:44.548Z,8.57
2022-12-05T12:21:19.493Z,10.30
2022-12-05T12:23:50.164Z,8.90
2022-12-05T12:26:23.481Z,9.43
2022-12-05T12:29:11.069Z,9.43
2022-12-05T12:32:05.066Z,9.32
2022-12-05T12:34:35.403Z,8.18
2022-12-05T12:37:02.965Z,9.13
2022-12-05T12:39:36.294Z,7.53
2022-12-05T12:42:22.244Z,9.35
2022-12-05T12:44:49.604Z,8.52
2022-12-05T12:47:16.795Z,9.95
2022-12-05T12:49:44.049Z,8.15
2022-12-05T12:52:16.375Z,9.25
2022-12-05T12:55:16.235Z,9.32
2022-12-05T12:57:52.947Z,9.05
2022-12-05T13:00:23.504Z,9.30
2022-12-05T13:03:11.589Z,9.60
2022-12-05T13:05:43.268Z,7.35
2022-12-05T13:08:29.416Z,8.90
2022-12-05T13:10:57.971Z,8.88
2022-12-05T13:13:28.315Z,8.93
2022-12-05T13:15:56.958Z,7.50
2022-12-05T13:18:25.718Z,8.43
2022-12-05T13:21:04.034Z,7.97
2022-12-05T13:23:35.466Z,9.25
2022-12-05T13:26:08.254Z,8.63
2022-12-05T13:28:35.475Z,7.72
2022-12-05T13:31:04.883Z,8.93
2022-12-05T13:33:33.998Z,9.13
2022-12-05T13:36:25.112Z,7.30
2022-12-05T13:39:16.207Z,9.25
2022-12-05T13:42:07.259Z,8.77
2022-12-05T13:44:37.224Z,9.57
2022-12-05T13:47:07.519Z,8.68
2022-12-05T13:49:45.603Z,8.27
2022-12-05T13:52:24.232Z,8.70
2022-12-05T13:54:59.342Z,9.25
2022-12-05T13:57:38.895Z,8.70
2022-12-05T14:00:09.238Z,9.10
2022-12-05T14:02:45.576Z,8.07
2022-12-05T14:05:18.720Z,7.75
2022-12-05T14:07:50.441Z,7.03
2022-12-05T14:10:23.982Z,8.48
2022-12-05T14:12:51.313Z,8.43
2022-12-05T14:15:45.821Z,8.05
2022-12-05T14:18:17.687Z,8.40
2022-12-05T14:20:59.666Z,7.78
2022-12-05T14:23:30.178Z,8.00
2022-12-05T14:26:08.833Z,8.45
2022-12-05T14:28:54.923Z,7.53
2022-12-05T14:31:22.176Z,7.63
2022-12-05T14:34:25.281Z,6.55
2022-12-05T14:36:56.811Z,7.05
2022-12-05T14:39:31.511Z,9.32
2022-12-05T14:42:02.600Z,8.38
2022-12-05T14:44:33.384Z,8.48
2022-12-05T14:47:05.691Z,7.60
2022-12-05T14:49:38.135Z,8.20
2022-12-05T14:52:12.018Z,8.75
2022-12-05T14:54:40.044Z,8.27
2022-12-05T14:57:12.158Z,9.80
2022-12-05T14:59:39.428Z,11.27
2022-12-05T15:02:06.770Z,7.95
2022-12-05T15:04:38.160Z,9.85
2022-12-05T15:07:09.085Z,7.40
2022-12-05T15:09:39.325Z,8.05
2022-12-05T15:12:12.296Z,8.63
2022-12-05T15:14:46.245Z,10.23
2022-12-05T15:17:16.905Z,9.82
2022-12-05T15:19:52.297Z,9.88
2022-12-05T15:22:22.201Z,8.20
2022-12-05T15:24:49.443Z,8.52
2022-12-05T15:27:16.827Z,8.18
2022-12-05T15:29:44.126Z,8.75
2022-12-05T15:32:11.304Z,9.15
2022-12-05T15:34:44.875Z,7.40
2022-12-05T15:37:18.224Z,10.50
2022-12-05T15:39:52.504Z,12.32
2022-12-05T15:42:23.624Z,11.07
2022-12-05T15:45:01.111Z,9.52
2022-12-05T15:47:28.378Z,9.88
2022-12-05T15:49:55.754Z,10.23
2022-12-05T15:52:33.132Z,9.05
2022-12-05T15:55:02.299Z,7.97
2022-12-05T15:57:36.392Z,13.45
2022-12-05T16:00:06.425Z,8.48
2022-12-05T16:05:07.127Z,9.45
2022-12-05T16:07:35.597Z,9.35
2022-12-05T16:10:03.041Z,8.48
2022-12-05T16:12:39.254Z,8.18
2022-12-05T16:15:18.891Z,7.50
2022-12-05T16:17:54.255Z,9.73
2022-12-05T16:20:24.889Z,10.80
2022-12-05T16:22:54.236Z,9.23
2022-12-05T16:25:27.460Z,7.78
2022-12-05T16:27:57.810Z,10.05
2022-12-05T16:30:25.340Z,8.27
2022-12-05T16:32:59.746Z,7.70
2022-12-05T16:35:37.641Z,8.85
2022-12-05T16:38:07.664Z,7.50
2022-12-05T16:40:35.029Z,7.57
2022-12-05T16:43:06.956Z,8.23
2022-12-05T16:45:42.999Z,8.68
2022-12-05T16:48:16.583Z,8.23
2022-12-05T16:50:43.944Z,8.07
2022-12-05T16:53:11.158Z,9.60
2022-12-05T16:55:38.818Z,6.80
2022-12-05T16:58:06.687Z,10.73
2022-12-05T17:00:34.125Z,9.52
2022-12-05T17:03:25.857Z,9.43
2022-12-05T17:05:48.647Z,8.55
2022-12-05T17:08:15.985Z,10.70
2022-12-05T17:10:44.035Z,9.05
2022-12-05T17:13:15.114Z,10.40
2022-12-05T17:15:42.714Z,9.05
2022-12-05T17:18:17.314Z,9.05
2022-12-05T17:20:46.821Z,9.48
2022-12-05T17:25:44.910Z,9.70
2022-12-05T17:28:12.424Z,10.55
2022-12-05T17:30:40.039Z,9.85
2022-12-05T17:33:08.380Z,9.13
2022-12-05T17:35:36.306Z,11.57
2022-12-05T17:38:04.258Z,7.63
2022-12-05T17:40:32.138Z,9.23
2022-12-05T17:42:59.657Z,10.18
2022-12-05T17:45:26.910Z,8.95
2022-12-05T17:47:54.236Z,9.10
2022-12-05T17:50:22.695Z,9.18
2022-12-05T17:52:50.450Z,8.43
2022-12-05T17:55:19.576Z,7.68
2022-12-05T17:57:46.930Z,11.27
2022-12-05T18:00:15.027Z,10.77
2022-12-05T18:02:43.409Z,9.18
2022-12-05T18:05:12.043Z,9.10
2022-12-05T18:07:39.923Z,10.35
2022-12-05T18:10:12.691Z,8.95
2022-12-05T18:12:41.053Z,7.55
2022-12-05T18:15:08.873Z,7.32
2022-12-05T18:17:36.200Z,7.70
2022-12-05T18:20:03.592Z,8.75
2022-12-05T18:22:31.009Z,8.52
2022-12-05T18:24:58.747Z,8.80
2022-12-05T18:27:26.320Z,8.27
2022-12-05T18:29:53.933Z,7.47
2022-12-05T18:32:21.226Z,9.23
2022-12-05T18:34:48.511Z,6.95
2022-12-05T18:37:18.248Z,7.90
2022-12-05T18:39:45.844Z,7.07
2022-12-05T18:42:15.283Z,6.90
2022-12-05T18:44:43.090Z,8.20
2022-12-05T18:47:10.388Z,7.90
2022-12-05T18:49:38.599Z,8.27
2022-12-05T18:52:05.926Z,7.85
2022-12-05T18:54:33.209Z,7.32
2022-12-05T18:57:00.413Z,8.50
2022-12-05T18:59:28.849Z,8.85
2022-12-05T19:01:56.250Z,9.25
2022-12-05T19:04:23.606Z,8.02
2022-12-05T19:06:55.216Z,8.65
2022-12-05T19:09:23.717Z,8.88
2022-12-05T19:11:52.498Z,9.70
2022-12-05T19:14:20.874Z,9.57
2022-12-05T19:16:58.084Z,10.13
2022-12-05T19:19:27.998Z,9.15
2022-12-05T19:21:55.495Z,10.52
2022-12-05T19:24:23.016Z,10.40
2022-12-05T19:26:50.387Z,9.75
2022-12-05T19:29:17.771Z,8.60
2022-12-05T19:31:45.279Z,8.88
2022-12-05T19:34:12.817Z,10.00
2022-12-05T19:36:41.309Z,10.88
2022-12-05T19:39:10.332Z,10.63
2022-12-05T19:41:37.760Z,9.65
2022-12-05T19:44:05.185Z,10.23
2022-12-05T19:46:33.184Z,9.68
2022-12-05T19:49:02.512Z,8.60
2022-12-05T19:51:30.279Z,8.60
2022-12-05T19:53:58.879Z,9.07
2022-12-05T19:56:26.841Z,9.55
2022-12-05T19:58:55.601Z,8.90
2022-12-05T20:01:23.020Z,9.32
2022-12-05T20:03:51.694Z,9.52
2022-12-05T20:06:19.707Z,9.05
2022-12-05T20:08:47.470Z,8.18
2022-12-05T20:11:18.990Z,13.38
2022-12-05T20:13:47.659Z,8.90
2022-12-05T20:16:16.344Z,9.10
2022-12-05T20:18:43.695Z,9.70
2022-12-05T20:21:12.930Z,12.27
2022-12-05T20:23:40.364Z,10.05
2022-12-05T20:26:15.242Z,8.23
2022-12-05T20:28:42.725Z,8.70
2022-12-05T20:31:11.419Z,8.52
2022-12-05T20:33:38.924Z,8.38
2022-12-05T20:36:07.661Z,7.65
2022-12-05T20:38:35.451Z,9.02
2022-12-05T20:41:03.614Z,8.05
2022-12-05T20:43:30.831Z,8.07
2022-12-05T20:46:03.806Z,8.43
2022-12-05T20:48:31.080Z,7.75
2022-12-05T20:51:03.904Z,6.85
2022-12-05T20:53:33.771Z,8.40
2022-12-05T20:56:11.822Z,8.02
2022-12-05T20:58:39.502Z,8.75
2022-12-05T21:01:08.151Z,7.22
2022-12-05T21:03:35.779Z,7.55
2022-12-05T21:06:10.247Z,8.40
2022-12-05T21:08:37.663Z,8.27
2022-12-05T21:11:05.281Z,7.18
2022-12-05T21:13:32.913Z,7.03
2022-12-05T21:16:07.055Z,7.15
2022-12-05T21:18:34.315Z,8.65
2022-12-05T21:21:03.177Z,8.13
2022-12-05T21:23:30.467Z,6.95
2022-12-05T21:26:01.231Z,6.57
2022-12-05T21:28:30.132Z,7.40
2022-12-05T21:30:57.409Z,7.38
2022-12-05T21:33:28.797Z,7.30
2022-12-05T21:35:56.346Z,7.25
2022-12-05T21:38:23.584Z,6.85
2022-12-05T21:40:52.126Z,6.68
2022-12-05T21:43:19.486Z,7.15
2022-12-05T21:45:53.028Z,6.13
2022-12-05T21:48:24.460Z,8.05
2022-12-05T21:50:52.300Z,6.43
2022-12-05T21:53:20.139Z,7.80
2022-12-05T21:55:47.421Z,8.40
2022-12-05T21:58:15.107Z,6.45
2022-12-05T22:00:43.265Z,5.32
2022-12-05T22:03:14.580Z,7.32
2022-12-05T22:05:42.473Z,6.60
2022-12-05T22:08:09.757Z,7.00
2022-12-05T22:10:37.187Z,7.10
2022-12-05T22:13:04.952Z,6.57
2022-12-05T22:15:32.218Z,7.07
2022-12-05T22:17:59.439Z,7.57
2022-12-05T22:20:26.702Z,6.95
2022-12-05T22:22:53.911Z,6.95
2022-12-05T22:25:21.417Z,6.07
2022-12-05T22:27:48.710Z,7.07
2022-12-05T22:30:16.060Z,7.53
2022-12-05T22:32:43.337Z,8.05
2022-12-05T22:35:10.584Z,7.25
2022-12-05T22:37:37.837Z,7.90
2022-12-05T22:40:05.485Z,8.35
2022-12-05T22:42:32.791Z,6.15
2022-12-05T22:45:00.059Z,7.95
2022-12-05T22:47:27.290Z,7.68
2022-12-05T22:49:54.531Z,7.47
2022-12-05T22:52:21.741Z,7.82
2022-12-05T22:54:48.998Z,9.10
2022-12-05T22:57:16.267Z,7.85
2022-12-05T22:59:43.514Z,7.57
2022-12-05T23:02:10.777Z,7.90
2022-12-05T23:04:41.087Z,8.40
2022-12-05T23:07:08.462Z,9.05
2022-12-05T23:09:38.025Z,6.95
2022-12-05T23:12:05.514Z,8.10
2022-12-05T23:14:32.802Z,8.27
2022-12-05T23:17:00.119Z,8.63
2022-12-05T23:19:27.438Z,8.88
2022-12-05T23:21:54.930Z,8.02
2022-12-05T23:24:22.223Z,8.70
2022-12-05T23:26:49.560Z,7.03
2022-12-05T23:29:16.936Z,8.57
2022-12-05T23:31:44.689Z,9.10
2022-12-05T23:34:12.680Z,8.43
2022-12-05T23:36:40.510Z,8.68
2022-12-05T23:39:07.994Z,8.13
2022-12-05T23:41:35.413Z,8.00
2022-12-05T23:44:02.986Z,9.95
2022-12-05T23:46:30.909Z,9.75
2022-12-05T23:48:58.430Z,8.80
2022-12-05T23:51:27.900Z,9.48
2022-12-05T23:56:24.660Z,10.90
